Time;durP1;ratioP1;P1;durP2;ratioP2;P2;SDS_P1;SDS_P2;PMS_P1;PMS_P2;Temp;Humidity;BMP_temperature;BMP_pressure;BME280_temperature;BME280_humidity;BME280_pressure;Samples;Min_cycle;Max_cycle;Signal;HPM_P1;HPM_P2
2022/07/02 00:00:37;;;;;;;9.23;5.87;;;15.60;99.90;;;;;;5032276;28;20174;-66
2022/07/02 00:03:04;;;;;;;6.17;5.57;;;15.60;99.90;;;;;;5033135;28;20178;-65
2022/07/02 00:05:31;;;;;;;7.73;6.13;;;15.40;99.90;;;;;;5032919;28;20956;-65
2022/07/02 00:07:57;;;;;;;6.20;5.13;;;15.40;99.90;;;;;;5033311;28;20399;-65
2022/07/02 00:10:24;;;;;;;6.97;6.27;;;15.30;99.90;;;;;;5033253;28;20792;-65
2022/07/02 00:12:49;;;;;;;6.30;5.67;;;15.30;99.90;;;;;;5033149;28;20218;-65
2022/07/02 00:15:16;;;;;;;6.43;5.83;;;15.30;99.90;;;;;;5057656;22;20438;-70
2022/07/02 00:17:42;;;;;;;6.60;5.47;;;15.40;99.90;;;;;;5053194;28;20627;-69
2022/07/02 00:20:08;;;;;;;7.37;6.37;;;15.30;99.90;;;;;;5053990;28;20397;-69
2022/07/02 00:22:34;;;;;;;9.63;6.70;;;15.20;99.90;;;;;;5053700;28;20398;-69
2022/07/02 00:25:00;;;;;;;6.67;5.97;;;15.30;99.90;;;;;;5053579;28;20401;-69
2022/07/02 00:27:29;;;;;;;6.87;6.17;;;15.20;99.90;;;;;;5053722;28;20496;-69
2022/07/02 00:30:03;;;;;;;10.10;4.77;;;15.30;99.90;;;;;;5053597;28;20178;-69
2022/07/02 00:32:30;;;;;;;6.10;5.50;;;15.30;99.90;;;;;;5053670;28;20914;-69
2022/07/02 00:34:58;;;;;;;6.10;5.27;;;15.30;99.90;;;;;;5053724;28;20405;-69
2022/07/02 00:37:28;;;;;;;6.00;5.20;;;15.30;99.90;;;;;;5053452;28;20444;-69
2022/07/02 00:39:54;;;;;;;7.10;5.30;;;15.20;99.90;;;;;;5053466;28;20488;-69
2022/07/02 00:42:21;;;;;;;10.10;5.73;;;15.10;99.90;;;;;;5053323;28;20412;-69
2022/07/02 00:44:47;;;;;;;6.70;5.50;;;15.10;99.90;;;;;;5053274;28;20409;-69
2022/07/02 00:47:14;;;;;;;7.93;6.73;;;15.10;99.90;;;;;;5053150;28;20425;-68
2022/07/02 00:49:39;;;;;;;7.43;5.90;;;15.10;99.90;;;;;;5053329;28;20890;-68
2022/07/02 00:52:07;;;;;;;6.50;5.50;;;15.10;99.90;;;;;;5053292;28;20488;-68
2022/07/02 00:54:35;;;;;;;6.40;5.80;;;15.10;99.90;;;;;;5053053;28;20159;-69
2022/07/02 00:57:01;;;;;;;8.00;6.37;;;15.10;99.90;;;;;;5052992;28;20464;-69
2022/07/02 00:59:28;;;;;;;8.27;6.40;;;15.10;99.90;;;;;;5052962;28;20401;-69
2022/07/02 01:01:53;;;;;;;8.90;6.77;;;15.00;99.90;;;;;;5053069;28;20405;-69
2022/07/02 01:04:20;;;;;;;8.53;6.23;;;15.00;99.90;;;;;;5052859;28;20401;-69
2022/07/02 01:06:48;;;;;;;8.57;5.53;;;15.00;99.90;;;;;;5052815;28;20197;-68
2022/07/02 01:11:59;;;;;;;8.70;6.87;;;15.00;99.90;;;;;;5052628;28;20400;-70
2022/07/02 01:14:26;;;;;;;7.60;5.83;;;14.90;99.90;;;;;;5052779;28;20422;-70
2022/07/02 01:16:57;;;;;;;5.80;4.90;;;14.80;99.90;;;;;;5053363;28;20461;-69
2022/07/02 01:19:24;;;;;;;8.83;7.40;;;14.80;99.90;;;;;;5051059;28;20402;-69
2022/07/02 01:22:14;;;;;;;7.43;6.60;;;14.80;99.90;;;;;;5053623;28;20402;-69
2022/07/02 01:24:41;;;;;;;5.87;5.20;;;14.80;99.90;;;;;;5053031;28;20402;-69
2022/07/02 01:27:07;;;;;;;5.93;5.33;;;14.80;99.90;;;;;;5034930;28;20468;-69
2022/07/02 01:29:33;;;;;;;6.40;5.77;;;14.90;99.90;;;;;;5052435;28;20417;-69
2022/07/02 01:31:58;;;;;;;7.60;6.43;;;14.80;99.90;;;;;;5052688;28;20202;-69
2022/07/02 01:34:24;;;;;;;9.33;6.23;;;14.80;99.90;;;;;;5052676;28;20867;-69
2022/07/02 01:36:50;;;;;;;6.03;5.20;;;14.80;99.90;;;;;;5052178;28;20201;-69
2022/07/02 01:39:22;;;;;;;8.47;5.90;;;14.70;99.90;;;;;;5052535;28;20179;-69
2022/07/02 01:41:48;;;;;;;7.67;6.00;;;14.80;99.90;;;;;;5052434;28;20429;-69
2022/07/02 01:44:13;;;;;;;8.20;6.50;;;14.80;99.90;;;;;;5051998;28;20413;-68
2022/07/02 01:46:39;;;;;;;6.40;5.60;;;14.80;99.90;;;;;;5052011;28;20206;-69
2022/07/02 01:49:05;;;;;;;8.33;6.03;;;14.90;99.90;;;;;;5052416;28;20155;-69
2022/07/02 01:51:31;;;;;;;7.70;6.90;;;14.90;99.90;;;;;;5052054;28;20629;-69
2022/07/02 01:53:57;;;;;;;9.20;7.17;;;14.90;99.90;;;;;;5052084;28;20463;-69
2022/07/02 01:56:22;;;;;;;6.50;5.90;;;14.90;99.90;;;;;;5051648;28;20183;-69
2022/07/02 01:58:48;;;;;;;8.10;7.30;;;14.90;99.90;;;;;;5051861;28;20167;-69
2022/07/02 02:01:13;;;;;;;6.73;6.07;;;14.90;99.90;;;;;;5051849;28;20207;-69
2022/07/02 02:03:39;;;;;;;9.03;6.50;;;14.90;99.90;;;;;;5052130;28;20178;-69
2022/07/02 02:06:04;;;;;;;8.53;6.80;;;14.90;99.90;;;;;;5051726;28;20235;-69
2022/07/02 02:08:30;;;;;;;9.23;6.27;;;14.90;99.90;;;;;;5052027;28;20167;-69
2022/07/02 02:10:56;;;;;;;7.40;6.07;;;14.80;99.90;;;;;;5052017;28;20190;-68
2022/07/02 02:13:21;;;;;;;7.90;6.20;;;14.90;99.90;;;;;;5051724;28;20436;-69
2022/07/02 02:15:47;;;;;;;8.90;7.70;;;14.90;99.90;;;;;;5051315;28;20229;-68
2022/07/02 02:18:12;;;;;;;8.70;7.10;;;14.90;99.90;;;;;;5052079;28;20659;-68
2022/07/02 02:20:38;;;;;;;8.87;7.20;;;14.90;99.90;;;;;;5052086;28;20178;-68
2022/07/02 02:23:04;;;;;;;8.00;7.30;;;14.90;99.90;;;;;;5052112;28;20171;-69
2022/07/02 02:25:31;;;;;;;7.90;6.23;;;15.00;99.90;;;;;;5033403;28;20428;-69
2022/07/02 02:27:58;;;;;;;7.83;6.30;;;15.00;99.90;;;;;;5051785;28;20453;-69
2022/07/02 02:30:24;;;;;;;8.00;6.70;;;15.10;99.90;;;;;;5051966;28;20930;-69
2022/07/02 02:32:49;;;;;;;8.10;6.53;;;15.00;99.90;;;;;;5051729;28;20410;-69
2022/07/02 02:35:15;;;;;;;12.23;7.00;;;15.00;99.90;;;;;;5051736;28;20397;-69
2022/07/02 02:37:40;;;;;;;6.63;5.87;;;14.90;99.90;;;;;;5052010;28;20193;-69
2022/07/02 02:40:08;;;;;;;9.07;6.80;;;15.00;99.90;;;;;;5051749;28;20212;-68
2022/07/02 02:42:33;;;;;;;9.47;7.67;;;15.00;99.90;;;;;;5051582;28;20166;-68
2022/07/02 02:44:59;;;;;;;11.33;7.50;;;15.00;99.90;;;;;;5051256;28;20462;-68
2022/07/02 02:47:24;;;;;;;10.80;8.20;;;15.00;99.90;;;;;;5051057;28;20206;-68
2022/07/02 02:49:50;;;;;;;8.00;6.70;;;14.90;99.90;;;;;;5051749;28;20170;-68
2022/07/02 02:52:16;;;;;;;7.70;6.53;;;14.90;99.90;;;;;;5051727;28;20519;-70
2022/07/02 02:54:42;;;;;;;8.70;6.63;;;14.80;99.90;;;;;;5051272;28;20167;-69
2022/07/02 02:57:07;;;;;;;8.30;6.43;;;14.70;99.90;;;;;;5051267;28;20437;-69
2022/07/02 02:59:33;;;;;;;13.50;6.57;;;14.80;99.90;;;;;;5051489;28;20175;-69
2022/07/02 03:01:58;;;;;;;6.60;5.90;;;14.80;99.90;;;;;;5051317;28;20174;-68
2022/07/02 03:04:24;;;;;;;7.67;6.97;;;14.70;99.90;;;;;;5051330;28;20171;-69
2022/07/02 03:06:49;;;;;;;8.83;7.00;;;14.80;99.90;;;;;;5051095;28;20195;-68
2022/07/02 03:09:15;;;;;;;9.23;7.57;;;14.80;99.90;;;;;;5051503;28;20171;-69
2022/07/02 03:11:41;;;;;;;9.10;7.60;;;14.90;99.90;;;;;;5051038;28;20174;-68
2022/07/02 03:14:06;;;;;;;8.13;7.33;;;14.80;99.90;;;;;;5051168;28;20163;-68
2022/07/02 03:16:32;;;;;;;7.70;6.70;;;14.80;99.90;;;;;;5050712;28;20202;-68
2022/07/02 03:18:57;;;;;;;8.47;7.67;;;14.80;99.90;;;;;;5051278;28;20167;-69
2022/07/02 03:21:23;;;;;;;8.50;6.83;;;14.90;99.90;;;;;;5051162;28;20246;-69
2022/07/02 03:23:48;;;;;;;7.03;6.00;;;14.90;99.90;;;;;;5051177;28;20175;-69
2022/07/02 03:26:14;;;;;;;9.17;7.27;;;14.90;99.90;;;;;;5050576;28;20191;-69
2022/07/02 03:28:39;;;;;;;8.73;6.77;;;14.90;99.90;;;;;;5051079;28;20178;-68
2022/07/02 03:31:05;;;;;;;9.37;6.97;;;15.00;99.90;;;;;;5050970;28;20163;-70
2022/07/02 03:33:31;;;;;;;9.70;7.50;;;15.00;99.90;;;;;;5050934;28;20198;-70
2022/07/02 03:35:56;;;;;;;7.23;6.50;;;15.10;99.90;;;;;;5052520;28;20225;-69
2022/07/02 03:38:22;;;;;;;10.00;7.10;;;15.10;99.90;;;;;;5054795;28;20171;-69
2022/07/02 03:40:47;;;;;;;7.27;6.57;;;15.20;99.90;;;;;;5054608;28;20172;-69
2022/07/02 03:43:13;;;;;;;9.53;7.27;;;15.20;99.90;;;;;;5054970;28;20216;-70
2022/07/02 03:45:38;;;;;;;9.20;7.30;;;15.30;99.90;;;;;;5054479;28;20182;-69
2022/07/02 03:48:04;;;;;;;7.73;6.93;;;15.30;99.90;;;;;;5054940;28;20627;-69
2022/07/02 03:50:30;;;;;;;10.30;8.13;;;15.30;99.90;;;;;;5054579;28;20649;-69
2022/07/02 03:52:55;;;;;;;7.13;6.30;;;15.40;99.90;;;;;;5054497;28;20915;-69
2022/07/02 03:55:21;;;;;;;9.47;6.57;;;15.40;99.90;;;;;;5036119;28;20195;-69
2022/07/02 03:57:47;;;;;;;9.33;7.47;;;15.40;99.90;;;;;;5054308;28;20225;-69
2022/07/02 04:00:13;;;;;;;8.97;7.30;;;15.50;99.90;;;;;;5054772;28;20198;-70
2022/07/02 04:02:39;;;;;;;7.60;6.33;;;15.50;99.90;;;;;;5054454;28;20589;-69
2022/07/02 04:05:05;;;;;;;8.53;7.73;;;15.50;99.90;;;;;;5054111;28;20405;-70
2022/07/02 04:07:31;;;;;;;8.23;6.57;;;15.60;99.90;;;;;;5054166;28;20468;-70
2022/07/02 04:09:56;;;;;;;7.47;6.57;;;15.60;99.90;;;;;;5054369;28;20401;-69
2022/07/02 04:12:22;;;;;;;8.33;6.47;;;15.70;99.90;;;;;;5054055;28;20678;-70
2022/07/02 04:14:48;;;;;;;8.27;7.30;;;15.80;99.90;;;;;;5053705;28;20167;-70
2022/07/02 04:17:13;;;;;;;7.40;6.67;;;15.80;99.90;;;;;;5053951;28;20237;-70
2022/07/02 04:19:39;;;;;;;8.70;7.80;;;15.90;99.90;;;;;;5053954;28;20252;-70
2022/07/02 04:22:04;;;;;;;7.10;6.40;;;16.40;99.90;;;;;;5054135;28;20175;-69
2022/07/02 04:24:31;;;;;;;7.87;5.80;;;17.40;99.90;;;;;;5053479;28;20647;-69
2022/07/02 04:26:56;;;;;;;5.97;5.37;;;18.10;99.90;;;;;;5054111;28;20239;-69
2022/07/02 04:29:22;;;;;;;5.83;5.17;;;18.50;99.90;;;;;;5053847;28;20434;-69
2022/07/02 04:31:48;;;;;;;7.27;5.80;;;18.90;99.90;;;;;;5053581;28;20174;-68
2022/07/02 04:34:13;;;;;;;4.50;4.10;;;19.10;99.90;;;;;;5053823;28;20167;-68
2022/07/02 04:36:39;;;;;;;5.00;4.50;;;19.70;99.90;;;;;;5053439;28;20555;-70
2022/07/02 04:39:06;;;;;;;5.63;5.13;;;19.80;99.90;;;;;;5053640;28;20217;-68
2022/07/02 04:41:32;;;;;;;4.87;4.43;;;19.90;99.90;;;;;;5053989;28;20822;-69
2022/07/02 04:43:58;;;;;;;4.33;3.93;;;19.80;99.90;;;;;;5035474;28;20434;-68
2022/07/02 04:46:24;;;;;;;4.63;4.20;;;20.00;99.90;;;;;;5052835;28;20459;-68
2022/07/02 04:48:49;;;;;;;4.43;4.13;;;19.80;99.90;;;;;;5053325;28;20403;-69
2022/07/02 04:51:15;;;;;;;6.97;4.57;;;20.10;99.90;;;;;;5053386;28;20174;-69
2022/07/02 04:53:41;;;;;;;4.63;4.23;;;19.70;99.90;;;;;;5053119;28;20226;-68
2022/07/02 04:56:06;;;;;;;4.07;3.67;;;19.10;99.90;;;;;;5052805;28;20189;-69
2022/07/02 04:58:32;;;;;;;7.07;4.53;;;18.90;99.90;;;;;;5053146;28;20261;-68
2022/07/02 05:00:57;;;;;;;6.60;4.77;;;19.10;99.90;;;;;;5053119;28;20630;-68
2022/07/02 05:03:23;;;;;;;5.57;4.50;;;19.20;99.90;;;;;;5053058;28;20631;-69
2022/07/02 05:05:48;;;;;;;4.73;3.80;;;19.40;99.90;;;;;;5053185;28;20414;-69
2022/07/02 05:08:14;;;;;;;4.83;4.37;;;19.50;99.90;;;;;;5053001;28;20206;-70
2022/07/02 05:10:40;;;;;;;4.80;3.73;;;20.00;99.90;;;;;;5052900;28;20168;-69
2022/07/02 05:13:06;;;;;;;4.83;3.93;;;20.00;99.90;;;;;;5052893;28;20414;-69
2022/07/02 05:15:31;;;;;;;3.67;3.37;;;20.00;99.90;;;;;;5052475;28;20211;-69
2022/07/02 05:17:57;;;;;;;4.77;4.10;;;20.00;99.90;;;;;;5052761;28;20174;-69
2022/07/02 05:20:23;;;;;;;3.57;3.30;;;20.30;99.90;;;;;;5052684;28;20255;-69
2022/07/02 05:22:49;;;;;;;4.30;3.90;;;20.60;99.90;;;;;;5052658;28;20247;-69
2022/07/02 05:25:14;;;;;;;4.60;3.83;;;21.00;99.90;;;;;;5052231;28;20173;-69
2022/07/02 05:27:40;;;;;;;4.43;4.03;;;21.70;99.90;;;;;;5052663;28;20243;-69
2022/07/02 05:30:06;;;;;;;4.90;4.50;;;21.20;99.90;;;;;;5052634;28;20214;-69
2022/07/02 05:32:32;;;;;;;4.80;3.90;;;21.20;99.90;;;;;;5052615;28;20180;-69
2022/07/02 05:34:57;;;;;;;4.27;3.87;;;21.40;99.90;;;;;;5052157;28;20409;-69
2022/07/02 05:37:23;;;;;;;3.70;3.40;;;21.70;99.90;;;;;;5052558;28;20221;-69
2022/07/02 05:39:48;;;;;;;4.37;3.97;;;21.30;99.90;;;;;;5052343;28;20173;-69
2022/07/02 05:42:14;;;;;;;4.50;3.63;;;21.50;99.90;;;;;;5052520;28;20168;-69
2022/07/02 05:44:39;;;;;;;3.50;3.10;;;22.70;99.90;;;;;;5052069;28;20185;-69
2022/07/02 05:47:05;;;;;;;4.83;4.40;;;22.50;99.90;;;;;;5052262;28;20266;-69
2022/07/02 05:49:30;;;;;;;4.43;3.90;;;22.80;99.90;;;;;;5052210;28;20281;-69
2022/07/02 05:51:56;;;;;;;3.70;3.40;;;22.80;99.90;;;;;;5052293;28;20159;-69
2022/07/02 05:54:21;;;;;;;4.00;3.70;;;22.70;99.90;;;;;;5052142;28;20190;-69
2022/07/02 05:56:47;;;;;;;3.40;3.10;;;22.10;99.90;;;;;;5051926;28;20232;-69
2022/07/02 05:59:13;;;;;;;3.50;3.20;;;22.70;99.90;;;;;;5051200;28;20178;-69
2022/07/02 06:01:38;;;;;;;4.20;3.80;;;23.00;99.90;;;;;;5052070;28;20175;-69
2022/07/02 06:04:04;;;;;;;3.83;3.50;;;23.00;99.90;;;;;;5052042;28;20170;-68
2022/07/02 06:09:13;;;;;;;3.40;3.17;;;23.30;99.90;;;;;;5052068;28;20244;-68
2022/07/02 06:11:39;;;;;;;2.83;2.63;;;23.20;99.90;;;;;;5051875;28;20922;-68
2022/07/02 06:14:04;;;;;;;3.57;3.27;;;23.90;99.90;;;;;;5052093;28;20193;-69
2022/07/02 06:16:30;;;;;;;3.57;3.37;;;24.70;99.90;;;;;;5052059;28;20206;-69
2022/07/02 06:18:56;;;;;;;3.73;3.43;;;23.90;99.90;;;;;;5051770;28;20162;-68
2022/07/02 06:21:21;;;;;;;5.40;3.67;;;23.90;99.90;;;;;;5033864;28;20262;-68
2022/07/02 06:23:47;;;;;;;3.87;3.57;;;23.80;99.90;;;;;;5051880;28;20444;-69
2022/07/02 06:26:13;;;;;;;4.30;3.90;;;23.40;99.90;;;;;;5051539;28;20183;-69
2022/07/02 06:28:38;;;;;;;3.60;3.30;;;23.60;99.90;;;;;;5052029;28;20633;-69
2022/07/02 06:31:04;;;;;;;3.53;3.17;;;23.40;99.90;;;;;;5051767;28;20167;-69
2022/07/02 06:33:29;;;;;;;3.10;2.90;;;23.50;99.90;;;;;;5051616;28;20163;-69
2022/07/02 06:35:55;;;;;;;2.90;2.70;;;24.60;99.90;;;;;;5051389;28;20182;-68
2022/07/02 06:38:21;;;;;;;3.40;3.10;;;25.00;99.90;;;;;;5052091;28;20603;-68
2022/07/02 06:40:46;;;;;;;3.30;3.10;;;24.70;99.90;;;;;;5051913;28;20167;-69
2022/07/02 06:43:12;;;;;;;3.30;2.77;;;24.40;99.90;;;;;;5051853;28;20169;-69
2022/07/02 06:45:37;;;;;;;3.37;2.77;;;24.60;99.90;;;;;;5051420;28;20719;-68
2022/07/02 06:48:03;;;;;;;3.67;3.37;;;25.50;99.90;;;;;;5051470;28;20194;-69
2022/07/02 06:50:29;;;;;;;3.17;2.93;;;25.70;99.90;;;;;;5051653;28;20523;-69
2022/07/02 06:52:55;;;;;;;3.30;3.00;;;26.60;99.90;;;;;;5051674;28;20410;-69
2022/07/02 06:55:20;;;;;;;9.20;2.90;;;24.80;99.90;;;;;;5051200;28;20183;-69
2022/07/02 06:57:48;;;;;;;2.70;2.50;;;26.10;99.90;;;;;;5051544;28;20166;-68
2022/07/02 07:00:15;;;;;;;5.73;3.00;;;26.50;99.90;;;;;;5051415;28;20167;-68
2022/07/02 07:02:40;;;;;;;3.37;3.07;;;26.00;99.90;;;;;;5051415;28;20420;-69
2022/07/02 07:05:06;;;;;;;3.97;3.07;;;24.80;99.90;;;;;;5051091;28;20432;-69
2022/07/02 07:07:34;;;;;;;3.40;3.10;;;25.50;99.90;;;;;;5051223;28;20221;-69
2022/07/02 07:10:00;;;;;;;3.00;2.73;;;26.10;99.90;;;;;;5051684;28;20393;-69
2022/07/02 07:12:26;;;;;;;2.20;2.07;;;27.90;99.90;;;;;;5055285;28;20459;-69
2022/07/02 07:14:51;;;;;;;2.20;2.00;;;26.40;99.90;;;;;;5055014;28;20170;-70
2022/07/02 07:17:17;;;;;;;2.13;2.03;;;26.40;99.90;;;;;;5055070;28;20294;-69
2022/07/02 07:19:43;;;;;;;2.40;2.20;;;28.30;98.40;;;;;;5055085;28;20197;-70
2022/07/02 07:22:09;;;;;;;2.33;2.13;;;26.60;99.60;;;;;;5055200;28;20181;-68
2022/07/02 07:24:35;;;;;;;2.30;2.07;;;25.60;99.90;;;;;;5054934;28;20171;-68
2022/07/02 07:27:01;;;;;;;2.40;2.20;;;25.70;99.90;;;;;;5054957;28;21043;-68
2022/07/02 07:29:27;;;;;;;3.73;1.97;;;26.90;99.30;;;;;;5055257;28;20480;-68
2022/07/02 07:31:53;;;;;;;2.33;1.93;;;26.70;98.10;;;;;;5055239;28;20527;-68
2022/07/02 07:34:19;;;;;;;1.70;1.60;;;26.70;97.40;;;;;;5055125;28;20589;-68
2022/07/02 07:36:45;;;;;;;2.53;2.07;;;27.70;98.30;;;;;;5055049;28;20479;-68
2022/07/02 07:39:10;;;;;;;1.80;1.67;;;27.40;96.60;;;;;;5055474;28;20475;-69
2022/07/02 07:41:36;;;;;;;2.17;2.00;;;27.70;95.50;;;;;;5054878;28;20167;-71
2022/07/02 07:44:03;;;;;;;2.40;1.77;;;26.50;94.80;;;;;;5054903;28;20648;-69
2022/07/02 07:46:29;;;;;;;1.80;1.70;;;27.40;92.30;;;;;;5053978;28;20966;-70
2022/07/02 07:48:54;;;;;;;1.63;1.53;;;28.70;92.20;;;;;;5054530;28;20397;-70
2022/07/02 07:51:20;;;;;;;1.80;1.70;;;28.00;93.60;;;;;;5054841;28;20488;-69
2022/07/02 07:53:46;;;;;;;3.10;1.63;;;27.90;92.50;;;;;;5054815;28;20199;-69
2022/07/02 07:56:18;;;;;;;1.83;1.73;;;27.40;93.00;;;;;;5054290;28;20179;-69
2022/07/02 07:58:44;;;;;;;1.20;1.10;;;26.10;93.90;;;;;;5054524;28;20246;-68
2022/07/02 08:01:09;;;;;;;2.93;1.83;;;28.30;93.10;;;;;;5054240;28;20505;-68
2022/07/02 08:03:35;;;;;;;2.37;1.40;;;27.70;90.80;;;;;;5054391;28;20312;-68
2022/07/02 08:06:01;;;;;;;1.60;1.50;;;28.00;92.80;;;;;;5054038;28;20244;-68
2022/07/02 08:08:26;;;;;;;1.60;1.50;;;27.80;91.80;;;;;;5054240;28;20726;-68
2022/07/02 08:10:52;;;;;;;3.10;2.00;;;27.10;92.30;;;;;;5054250;28;20213;-68
2022/07/02 08:13:17;;;;;;;1.40;1.30;;;26.30;91.10;;;;;;5054062;28;20213;-68
2022/07/02 08:15:43;;;;;;;1.30;1.20;;;27.40;91.60;;;;;;5053592;28;20206;-68
2022/07/02 08:18:09;;;;;;;1.53;1.10;;;28.30;87.60;;;;;;5053959;28;20181;-69
2022/07/02 08:20:36;;;;;;;1.10;1.00;;;27.70;81.70;;;;;;5054073;28;20402;-68
2022/07/02 08:23:01;;;;;;;1.10;0.90;;;27.10;84.40;;;;;;5052914;28;20170;-68
2022/07/02 08:25:27;;;;;;;1.97;1.30;;;28.80;81.10;;;;;;5053894;28;20466;-69
2022/07/02 08:27:53;;;;;;;2.30;1.43;;;28.80;78.80;;;;;;5053738;28;20194;-68
2022/07/02 08:30:19;;;;;;;1.30;1.20;;;27.40;82.20;;;;;;5053748;28;20167;-69
2022/07/02 08:32:44;;;;;;;1.17;1.00;;;27.10;84.10;;;;;;5054194;28;20892;-68
2022/07/02 08:35:10;;;;;;;1.30;1.20;;;27.30;82.90;;;;;;5053665;28;20174;-69
2022/07/02 08:37:36;;;;;;;3.30;1.00;;;26.80;82.30;;;;;;5053990;28;20167;-68
2022/07/02 08:40:02;;;;;;;2.60;1.30;;;27.40;87.40;;;;;;5053817;28;20163;-68
2022/07/02 08:42:32;;;;;;;3.23;1.27;;;27.70;78.90;;;;;;5053631;28;20202;-68
2022/07/02 08:45:02;;;;;;;1.40;0.90;;;25.30;78.20;;;;;;5053158;28;20895;-69
2022/07/02 08:47:29;;;;;;;1.67;0.80;;;24.80;81.00;;;;;;5053685;28;20544;-69
2022/07/02 08:49:56;;;;;;;1.57;1.07;;;25.90;81.60;;;;;;5053363;28;20402;-68
2022/07/02 08:52:23;;;;;;;2.13;1.47;;;26.70;81.00;;;;;;5053269;28;20425;-70
2022/07/02 08:54:50;;;;;;;2.77;2.57;;;25.40;81.50;;;;;;5053303;28;20945;-68
2022/07/02 08:57:16;;;;;;;1.30;1.20;;;25.20;84.80;;;;;;5053326;28;20429;-69
2022/07/02 08:59:42;;;;;;;1.13;1.03;;;27.20;82.80;;;;;;5053175;28;20417;-70
2022/07/02 09:02:13;;;;;;;1.93;1.20;;;27.50;80.20;;;;;;5053685;28;20915;-70
2022/07/02 09:04:45;;;;;;;1.37;1.27;;;28.10;78.40;;;;;;5053017;28;20408;-70
2022/07/02 09:07:13;;;;;;;2.10;1.30;;;26.90;81.60;;;;;;5052955;28;20471;-70
2022/07/02 09:09:42;;;;;;;2.20;1.30;;;26.70;79.80;;;;;;5053194;28;20454;-69
2022/07/02 09:12:12;;;;;;;1.10;1.00;;;27.10;79.40;;;;;;5052944;28;20440;-70
2022/07/02 09:14:39;;;;;;;1.20;1.10;;;26.80;79.00;;;;;;5052910;28;20452;-69
2022/07/02 09:17:09;;;;;;;1.60;1.00;;;26.10;80.70;;;;;;5052986;28;20474;-69
2022/07/02 09:19:36;;;;;;;1.00;0.90;;;26.90;77.40;;;;;;5053138;28;20401;-70
2022/07/02 09:22:01;;;;;;;1.83;1.10;;;26.40;78.40;;;;;;5052883;28;20891;-69
2022/07/02 09:24:37;;;;;;;1.13;1.00;;;26.70;74.40;;;;;;5052925;28;20437;-69
2022/07/02 09:27:05;;;;;;;1.10;1.00;;;27.40;78.70;;;;;;5052596;28;20202;-69
2022/07/02 09:29:48;;;;;;;1.20;0.90;;;27.70;80.20;;;;;;5052677;28;20429;-69
2022/07/02 09:32:15;;;;;;;1.27;1.17;;;27.70;74.50;;;;;;5052798;28;20414;-69
2022/07/02 09:34:43;;;;;;;1.30;1.03;;;27.40;77.40;;;;;;5052488;28;20452;-69
2022/07/02 09:37:27;;;;;;;1.20;1.00;;;28.10;75.20;;;;;;5052391;28;20425;-68
2022/07/02 09:39:55;;;;;;;1.97;1.10;;;28.00;73.60;;;;;;5052880;28;20475;-70
2022/07/02 09:42:29;;;;;;;1.13;0.80;;;28.10;72.00;;;;;;5052372;28;20420;-70
2022/07/02 09:44:55;;;;;;;2.33;1.20;;;28.20;74.20;;;;;;5052413;28;20397;-69
2022/07/02 09:47:48;;;;;;;3.43;1.33;;;28.70;69.50;;;;;;5052440;28;20536;-68
2022/07/02 09:50:16;;;;;;;0.93;0.87;;;27.90;70.50;;;;;;5052797;28;20433;-69
2022/07/02 09:52:52;;;;;;;0.93;0.80;;;27.30;71.80;;;;;;5052617;28;20417;-69
2022/07/02 09:55:26;;;;;;;3.13;0.90;;;27.80;71.40;;;;;;5052384;28;20441;-68
2022/07/02 09:58:03;;;;;;;1.30;1.10;;;27.10;71.80;;;;;;5052478;28;20405;-69
2022/07/02 10:00:41;;;;;;;1.30;1.20;;;26.70;73.30;;;;;;5052268;28;20420;-68
2022/07/02 10:03:07;;;;;;;1.17;1.00;;;26.30;72.60;;;;;;5052202;28;20409;-69
2022/07/02 10:05:33;;;;;;;1.20;1.10;;;27.50;74.40;;;;;;5051973;28;20805;-68
2022/07/02 10:08:06;;;;;;;1.57;1.00;;;27.40;71.60;;;;;;5052362;28;20226;-69
2022/07/02 10:10:40;;;;;;;0.90;0.80;;;27.50;73.60;;;;;;5052039;28;20401;-68
2022/07/02 10:13:10;;;;;;;1.10;0.90;;;28.00;69.00;;;;;;5052151;28;20397;-69
2022/07/02 10:15:50;;;;;;;1.67;1.00;;;26.90;68.90;;;;;;5051676;28;20858;-69
2022/07/02 10:18:17;;;;;;;1.70;1.60;;;27.90;69.70;;;;;;5052201;28;20409;-69
2022/07/02 10:20:42;;;;;;;2.50;1.93;;;27.20;68.70;;;;;;5051937;28;20826;-69
2022/07/02 10:23:08;;;;;;;3.00;2.30;;;26.30;71.40;;;;;;5052075;28;20409;-69
2022/07/02 10:25:35;;;;;;;2.53;1.23;;;27.00;69.90;;;;;;5051737;28;20185;-70
2022/07/02 10:28:01;;;;;;;1.00;0.90;;;27.10;67.00;;;;;;5051722;28;20202;-71
2022/07/02 10:30:32;;;;;;;5.23;2.00;;;27.00;67.80;;;;;;5051774;28;20436;-70
2022/07/02 10:33:04;;;;;;;1.30;1.20;;;27.40;67.30;;;;;;5051761;28;20406;-70
2022/07/02 10:35:32;;;;;;;1.47;1.00;;;28.00;65.30;;;;;;5051447;28;20489;-68
2022/07/02 10:38:00;;;;;;;1.53;0.90;;;26.90;66.00;;;;;;5051597;28;20415;-68
2022/07/02 10:40:27;;;;;;;1.20;1.10;;;26.60;69.40;;;;;;5051764;28;20846;-69
2022/07/02 10:42:53;;;;;;;1.20;1.03;;;26.90;70.00;;;;;;5051704;28;21043;-68
2022/07/02 10:45:23;;;;;;;1.53;0.90;;;26.50;68.40;;;;;;5053785;28;20511;-69
2022/07/02 10:47:58;;;;;;;1.10;1.00;;;26.90;68.70;;;;;;5058145;28;20447;-68
2022/07/02 10:50:39;;;;;;;1.00;0.90;;;26.90;68.70;;;;;;5058440;28;20774;-68
2022/07/02 10:53:08;;;;;;;1.53;0.80;;;26.50;69.60;;;;;;5058109;28;20400;-68
2022/07/02 10:55:34;;;;;;;2.03;1.10;;;25.80;67.60;;;;;;5058125;28;20455;-68
2022/07/02 10:58:01;;;;;;;1.23;1.10;;;25.60;70.70;;;;;;5058154;28;20530;-68
2022/07/02 11:00:29;;;;;;;1.20;1.10;;;26.40;67.00;;;;;;5040237;28;20172;-69
2022/07/02 11:02:57;;;;;;;2.10;1.30;;;26.50;66.60;;;;;;5058046;28;20813;-69
2022/07/02 11:05:22;;;;;;;1.60;1.10;;;26.20;68.00;;;;;;5058043;28;20432;-69
2022/07/02 11:07:48;;;;;;;1.50;1.40;;;26.00;65.90;;;;;;5058382;28;20510;-69
2022/07/02 11:10:13;;;;;;;1.43;0.90;;;26.70;66.40;;;;;;5058183;28;20165;-69
2022/07/02 11:13:03;;;;;;;1.13;0.90;;;26.10;65.60;;;;;;5058288;28;20252;-69
2022/07/02 11:15:36;;;;;;;2.00;1.30;;;26.20;66.10;;;;;;5057810;28;20644;-69
2022/07/02 11:18:05;;;;;;;1.77;1.57;;;26.70;66.20;;;;;;5058390;28;20915;-70
2022/07/02 11:20:35;;;;;;;3.20;1.10;;;26.40;67.40;;;;;;5058028;28;20421;-69
2022/07/02 11:23:02;;;;;;;1.53;1.43;;;26.20;64.80;;;;;;5057955;28;20413;-69
2022/07/02 11:25:29;;;;;;;1.80;1.43;;;26.40;67.20;;;;;;5057614;28;20955;-68
2022/07/02 11:27:57;;;;;;;1.43;0.97;;;26.70;65.00;;;;;;5057795;28;21039;-69
2022/07/02 11:30:31;;;;;;;1.53;1.20;;;26.10;65.70;;;;;;5058104;28;20467;-70
2022/07/02 11:32:57;;;;;;;0.80;0.80;;;26.00;66.70;;;;;;5057978;28;20397;-69
2022/07/02 11:35:23;;;;;;;1.30;1.10;;;25.80;64.40;;;;;;5057598;28;20487;-69
2022/07/02 11:37:53;;;;;;;1.40;1.10;;;25.90;65.20;;;;;;5057956;28;20435;-69
2022/07/02 11:40:23;;;;;;;1.10;0.90;;;26.40;66.30;;;;;;5057938;28;20472;-69
2022/07/02 11:42:49;;;;;;;1.00;0.90;;;26.40;66.80;;;;;;5057937;28;20410;-70
2022/07/02 11:45:15;;;;;;;1.33;1.03;;;26.50;66.10;;;;;;5057638;28;20410;-69
2022/07/02 11:47:49;;;;;;;1.23;1.00;;;26.50;64.20;;;;;;5057918;28;20556;-69
2022/07/02 11:50:26;;;;;;;3.23;1.00;;;26.60;63.80;;;;;;5058020;28;20437;-69
2022/07/02 11:52:51;;;;;;;1.90;1.17;;;26.10;68.30;;;;;;5057717;28;20729;-69
2022/07/02 11:55:17;;;;;;;2.70;1.00;;;25.70;66.70;;;;;;5058119;28;20404;-70
2022/07/02 11:57:44;;;;;;;1.33;1.23;;;25.90;66.00;;;;;;5055911;28;20580;-69
2022/07/02 12:00:10;;;;;;;1.27;1.17;;;25.60;66.70;;;;;;5054878;28;20517;-69
2022/07/02 12:02:40;;;;;;;0.93;0.90;;;25.10;66.10;;;;;;5054995;28;20500;-69
2022/07/02 12:05:19;;;;;;;0.93;0.90;;;24.90;65.90;;;;;;5036156;28;20512;-68
2022/07/02 12:07:45;;;;;;;1.20;1.10;;;24.90;67.60;;;;;;5054234;28;20977;-69
2022/07/02 12:10:15;;;;;;;1.63;0.90;;;25.40;64.90;;;;;;5054093;28;20413;-68
2022/07/02 12:12:40;;;;;;;1.10;0.83;;;25.40;63.80;;;;;;5054270;28;20404;-69
2022/07/02 12:15:08;;;;;;;1.23;1.13;;;25.60;64.90;;;;;;5053542;28;20401;-68
2022/07/02 12:17:35;;;;;;;1.53;1.10;;;25.90;64.80;;;;;;5075296;22;20245;-69
2022/07/02 12:20:03;;;;;;;1.20;1.10;;;26.00;63.00;;;;;;5054081;28;20496;-68
2022/07/02 12:22:29;;;;;;;0.90;0.90;;;25.30;64.80;;;;;;5053566;28;20796;-69
2022/07/02 12:24:55;;;;;;;1.90;0.90;;;25.70;65.70;;;;;;5053767;28;20475;-69
2022/07/02 12:27:24;;;;;;;1.33;1.10;;;25.90;63.70;;;;;;5053997;28;20217;-68
2022/07/02 12:29:52;;;;;;;0.83;0.83;;;26.20;62.90;;;;;;5053751;28;20169;-69
2022/07/02 12:32:20;;;;;;;1.83;1.13;;;26.00;61.70;;;;;;5053801;28;20399;-69
2022/07/02 12:34:48;;;;;;;1.17;1.00;;;26.10;61.60;;;;;;5053681;28;20398;-69
2022/07/02 12:37:37;;;;;;;1.90;1.10;;;26.00;61.40;;;;;;5053645;28;20432;-68
2022/07/02 12:40:22;;;;;;;1.07;0.97;;;25.60;62.50;;;;;;5053782;28;20403;-70
2022/07/02 12:42:56;;;;;;;1.37;1.00;;;25.90;61.80;;;;;;5053284;28;20415;-69
2022/07/02 12:45:29;;;;;;;4.43;1.73;;;26.10;63.40;;;;;;5053521;28;20406;-68
2022/07/02 12:48:08;;;;;;;1.07;0.80;;;25.70;62.80;;;;;;5053819;28;20804;-69
2022/07/02 12:50:37;;;;;;;0.87;0.80;;;25.90;62.80;;;;;;5057602;28;20432;-68